createdAt,value
2018-04-22T00:00:04.584Z,78.72
2018-04-22T00:02:32.149Z,80.13
2018-04-22T00:04:59.729Z,80.92
2018-04-22T00:07:27.352Z,81.01
2018-04-22T00:09:55.022Z,80.90
2018-04-22T00:12:22.622Z,81.14
2018-04-22T00:14:50.194Z,82.02
2018-04-22T00:17:17.765Z,81.18
2018-04-22T00:19:45.422Z,80.86
2018-04-22T00:22:12.977Z,80.94
2018-04-22T00:24:40.548Z,81.74
2018-04-22T00:27:08.133Z,81.99
2018-04-22T00:29:35.713Z,81.95
2018-04-22T00:32:03.281Z,82.52
2018-04-22T00:34:30.929Z,82.15
2018-04-22T00:36:58.502Z,82.25
2018-04-22T00:39:26.075Z,83.95
2018-04-22T00:41:53.649Z,83.71
2018-04-22T00:44:21.309Z,83.89
2018-04-22T00:46:49.769Z,84.22
2018-04-22T00:49:18.173Z,84.76
2018-04-22T00:51:45.749Z,85.17
2018-04-22T00:54:21.098Z,85.37
2018-04-22T00:56:49.474Z,84.41
2018-04-22T00:59:17.807Z,83.93
2018-04-22T01:01:45.383Z,83.64
2018-04-22T01:04:13.874Z,83.99
2018-04-22T01:06:42.211Z,84.87
2018-04-22T01:09:10.577Z,84.93
2018-04-22T01:11:38.952Z,85.70
2018-04-22T01:14:07.301Z,86.20
2018-04-22T01:16:35.128Z,86.64
2018-04-22T01:19:02.708Z,86.99
2018-04-22T01:21:30.286Z,87.18
2018-04-22T01:23:57.861Z,87.72
2018-04-22T01:26:25.438Z,88.14
2018-04-22T01:28:53.009Z,88.48
2018-04-22T01:31:20.608Z,88.56
2018-04-22T01:33:48.181Z,88.03
2018-04-22T01:36:15.785Z,88.16
2018-04-22T01:38:43.353Z,89.15
2018-04-22T01:41:11.738Z,88.99
2018-04-22T01:43:39.308Z,88.73
2018-04-22T01:46:06.886Z,88.29
2018-04-22T01:48:34.466Z,87.82
2018-04-22T01:51:02.042Z,87.94
2018-04-22T01:53:29.673Z,88.96
2018-04-22T01:55:57.251Z,89.09
2018-04-22T01:58:24.860Z,89.49
2018-04-22T02:00:53.240Z,89.33
2018-04-22T02:03:20.836Z,88.56
2018-04-22T02:05:48.419Z,88.29
2018-04-22T02:08:16.023Z,87.90
2018-04-22T02:10:43.597Z,88.50
2018-04-22T02:13:11.173Z,89.19
2018-04-22T02:15:38.747Z,89.36
2018-04-22T02:18:06.317Z,89.17
2018-04-22T02:20:33.890Z,89.69
2018-04-22T02:23:01.561Z,88.95
2018-04-22T02:25:29.175Z,88.66
2018-04-22T02:27:56.774Z,88.89
2018-04-22T02:30:24.398Z,89.87
2018-04-22T02:32:51.994Z,90.80
2018-04-22T02:35:19.690Z,90.94
2018-04-22T02:37:47.261Z,90.45
2018-04-22T02:40:14.830Z,90.67
2018-04-22T02:42:42.405Z,90.04
2018-04-22T02:45:09.989Z,90.43
2018-04-22T02:47:37.605Z,91.26
2018-04-22T02:50:05.181Z,91.16
2018-04-22T02:52:32.757Z,91.14
2018-04-22T02:55:00.356Z,91.12
2018-04-22T02:57:27.934Z,90.59
2018-04-22T02:59:55.535Z,90.60
2018-04-22T03:02:23.109Z,90.54
2018-04-22T03:04:50.709Z,90.98
2018-04-22T03:07:18.285Z,91.03
2018-04-22T03:09:45.902Z,91.29
2018-04-22T03:12:13.482Z,91.23
2018-04-22T03:14:41.113Z,91.57
2018-04-22T03:17:08.695Z,91.71
2018-04-22T03:19:36.285Z,91.38
2018-04-22T03:22:03.862Z,91.09
2018-04-22T03:24:31.501Z,92.07
2018-04-22T03:26:59.081Z,92.20
2018-04-22T03:29:26.657Z,91.78
2018-04-22T03:31:54.248Z,91.90
2018-04-22T03:34:21.944Z,92.35
2018-04-22T03:36:49.526Z,92.83
2018-04-22T03:39:17.132Z,92.96
2018-04-22T03:41:44.710Z,92.80
2018-04-22T03:44:12.290Z,93.29
2018-04-22T03:46:39.863Z,92.48
2018-04-22T03:49:07.442Z,92.26
2018-04-22T03:51:35.018Z,91.82
2018-04-22T03:54:02.597Z,91.68
2018-04-22T03:56:30.182Z,91.20
2018-04-22T03:58:57.756Z,91.52
2018-04-22T04:01:25.358Z,92.10
2018-04-22T04:03:52.930Z,91.90
2018-04-22T04:06:20.563Z,91.77
2018-04-22T04:08:48.142Z,92.11
2018-04-22T04:11:15.753Z,92.33
2018-04-22T04:13:43.320Z,92.37
2018-04-22T04:16:10.892Z,92.53
2018-04-22T04:18:59.321Z,92.44
2018-04-22T04:21:38.663Z,92.38
2018-04-22T04:27:27.006Z,92.67
2018-04-22T04:29:54.586Z,92.47
2018-04-22T04:32:22.161Z,93.00
2018-04-22T04:34:49.743Z,93.08
2018-04-22T04:37:17.318Z,92.54
2018-04-22T04:39:44.894Z,92.06
2018-04-22T04:42:12.568Z,91.51
2018-04-22T04:44:40.148Z,91.72
2018-04-22T04:47:07.729Z,92.08
2018-04-22T04:49:35.357Z,91.89
2018-04-22T04:52:03.017Z,91.71
2018-04-22T04:54:30.591Z,92.05
2018-04-22T04:56:58.282Z,90.63
2018-04-22T04:59:25.862Z,89.89
2018-04-22T05:01:53.441Z,89.96
2018-04-22T05:04:21.053Z,90.08
2018-04-22T05:06:48.629Z,90.02
2018-04-22T05:09:16.205Z,89.13
2018-04-22T05:11:43.781Z,89.42
2018-04-22T05:14:11.358Z,88.23
2018-04-22T05:16:38.934Z,88.62
2018-04-22T05:19:06.511Z,88.35
2018-04-22T05:21:34.089Z,88.52
2018-04-22T05:24:01.671Z,88.00
2018-04-22T05:26:29.259Z,88.09
2018-04-22T05:28:56.837Z,87.59
2018-04-22T05:31:24.413Z,87.21
2018-04-22T05:33:51.991Z,86.81
2018-04-22T05:36:19.562Z,86.46
2018-04-22T05:38:47.139Z,86.19
2018-04-22T05:41:14.761Z,86.43
2018-04-22T05:43:42.330Z,85.27
2018-04-22T05:46:09.898Z,85.96
2018-04-22T05:48:37.469Z,85.62
2018-04-22T05:51:05.043Z,84.32
2018-04-22T05:53:32.624Z,84.49
2018-04-22T05:56:00.201Z,83.97
2018-04-22T05:58:27.781Z,82.85
2018-04-22T06:00:55.360Z,83.12
2018-04-22T06:03:22.932Z,83.03
2018-04-22T06:05:50.511Z,80.55
2018-04-22T06:08:18.090Z,80.39
2018-04-22T06:10:45.664Z,78.99
2018-04-22T06:13:13.246Z,79.41
2018-04-22T06:15:40.821Z,78.65
2018-04-22T06:18:08.436Z,77.85
2018-04-22T06:20:36.012Z,77.10
2018-04-22T06:23:03.589Z,77.59
2018-04-22T06:25:31.168Z,75.79
2018-04-22T06:27:58.750Z,74.63
2018-04-22T06:30:26.332Z,74.58
2018-04-22T06:32:53.905Z,75.23
2018-04-22T06:35:21.484Z,71.99
2018-04-22T06:37:49.061Z,71.26
2018-04-22T06:40:16.667Z,71.76
2018-04-22T06:42:44.250Z,70.90
2018-04-22T06:45:11.820Z,70.82
2018-04-22T06:47:39.398Z,70.75
2018-04-22T06:50:06.979Z,67.62
2018-04-22T06:52:34.585Z,66.51
2018-04-22T06:55:02.153Z,65.55
2018-04-22T06:57:29.725Z,65.68
2018-04-22T06:59:57.328Z,63.16
2018-04-22T07:02:24.910Z,63.07
2018-04-22T07:04:53.090Z,63.28
2018-04-22T07:07:20.662Z,63.09
2018-04-22T07:09:48.238Z,63.43
2018-04-22T07:12:15.809Z,60.99
2018-04-22T07:14:43.490Z,60.74
2018-04-22T07:17:11.149Z,61.86
2018-04-22T07:19:38.726Z,59.70
2018-04-22T07:22:06.373Z,61.46
2018-04-22T07:24:34.036Z,57.91
2018-04-22T07:27:01.609Z,58.93
2018-04-22T07:29:29.213Z,60.00
2018-04-22T07:31:56.794Z,57.06
2018-04-22T07:34:24.401Z,57.44
2018-04-22T07:36:51.977Z,58.50
2018-04-22T07:39:19.639Z,55.87
2018-04-22T07:41:47.217Z,54.89
2018-04-22T07:44:14.788Z,55.32
2018-04-22T07:46:42.389Z,54.58
2018-04-22T07:49:09.966Z,55.25
2018-04-22T07:51:37.541Z,55.16
2018-04-22T07:54:05.118Z,55.84
2018-04-22T07:56:32.693Z,52.53
2018-04-22T07:59:00.269Z,53.62
2018-04-22T08:01:27.840Z,53.10
2018-04-22T08:03:55.463Z,53.33
2018-04-22T08:06:23.038Z,55.62
2018-04-22T08:08:50.613Z,54.12
2018-04-22T08:11:18.210Z,55.56
2018-04-22T08:13:45.781Z,53.93
2018-04-22T08:16:13.402Z,53.85
2018-04-22T08:18:40.958Z,51.67
2018-04-22T08:21:08.533Z,52.72
2018-04-22T08:23:36.110Z,52.90
2018-04-22T08:26:03.693Z,52.37
2018-04-22T08:28:31.274Z,51.18
2018-04-22T08:30:58.846Z,52.05
2018-04-22T08:33:26.413Z,52.73
2018-04-22T08:35:53.993Z,49.56
2018-04-22T08:38:21.576Z,49.41
2018-04-22T08:40:49.158Z,50.82
2018-04-22T08:43:16.734Z,50.21
2018-04-22T08:45:44.314Z,50.72
2018-04-22T08:48:11.890Z,51.52
2018-04-22T08:50:39.519Z,50.27
2018-04-22T08:53:07.074Z,47.70
2018-04-22T08:55:34.649Z,47.59
2018-04-22T08:58:02.221Z,47.86
2018-04-22T09:00:29.797Z,49.91
2018-04-22T09:02:57.401Z,46.98
2018-04-22T09:05:24.977Z,45.70
2018-04-22T09:07:52.556Z,45.50
2018-04-22T09:10:20.165Z,46.57
2018-04-22T09:12:47.741Z,48.10
2018-04-22T09:15:15.321Z,45.71
2018-04-22T09:17:42.940Z,46.99
2018-04-22T09:20:11.342Z,48.30
2018-04-22T09:22:38.925Z,45.48
2018-04-22T09:25:06.499Z,47.35
2018-04-22T09:27:34.081Z,44.78
2018-04-22T09:30:01.648Z,45.73
2018-04-22T09:32:29.221Z,45.38
2018-04-22T09:34:56.809Z,46.03
2018-04-22T09:37:24.459Z,43.32
2018-04-22T09:39:52.037Z,47.75
2018-04-22T09:42:19.623Z,44.97
2018-04-22T09:44:47.209Z,44.22
2018-04-22T09:47:14.784Z,44.77
2018-04-22T09:49:42.386Z,43.54
2018-04-22T09:52:09.966Z,42.52
2018-04-22T09:54:37.546Z,43.56
2018-04-22T09:57:05.118Z,42.25
2018-04-22T09:59:33.538Z,40.03
2018-04-22T10:02:01.110Z,41.20
2018-04-22T10:04:29.577Z,40.30
2018-04-22T10:06:57.145Z,42.52
2018-04-22T10:09:24.717Z,40.22
2018-04-22T10:11:52.295Z,39.47
2018-04-22T10:14:19.871Z,45.40
2018-04-22T10:16:47.437Z,38.66
2018-04-22T10:19:15.046Z,40.95
2018-04-22T10:21:42.613Z,40.22
2018-04-22T10:24:10.226Z,40.98
2018-04-22T10:26:37.804Z,41.14
2018-04-22T10:29:05.405Z,38.48
2018-04-22T10:31:32.977Z,39.63
2018-04-22T10:34:00.576Z,40.47
2018-04-22T10:36:28.148Z,41.25
2018-04-22T10:38:55.758Z,40.18
2018-04-22T10:41:23.335Z,37.30
2018-04-22T10:43:50.914Z,37.33
2018-04-22T10:46:18.500Z,38.34
2018-04-22T10:48:46.172Z,39.70
2018-04-22T10:51:13.893Z,36.72
2018-04-22T10:53:41.465Z,39.03
2018-04-22T10:56:09.036Z,40.10
2018-04-22T10:58:36.605Z,38.60
2018-04-22T11:01:04.181Z,38.39
2018-04-22T11:03:31.749Z,39.80
2018-04-22T11:05:59.465Z,38.09
2018-04-22T11:08:27.074Z,35.60
2018-04-22T11:10:54.649Z,37.93
2018-04-22T11:13:22.229Z,39.07
2018-04-22T11:15:49.799Z,35.93
2018-04-22T11:18:17.403Z,36.72
2018-04-22T11:20:44.982Z,34.71
2018-04-22T11:23:12.593Z,40.37
2018-04-22T11:25:40.167Z,37.08
2018-04-22T11:28:07.777Z,35.65
2018-04-22T11:30:35.353Z,36.55
2018-04-22T11:33:02.934Z,36.49
2018-04-22T11:35:30.511Z,34.68
2018-04-22T11:37:58.089Z,37.37
2018-04-22T11:40:25.673Z,38.79
2018-04-22T11:42:53.245Z,37.05
2018-04-22T11:45:20.885Z,35.27
2018-04-22T11:47:48.519Z,35.04
2018-04-22T11:50:16.214Z,33.84
2018-04-22T11:52:43.790Z,35.12
2018-04-22T11:55:11.365Z,36.33
2018-04-22T11:57:38.936Z,37.13
2018-04-22T12:00:06.534Z,37.46
2018-04-22T12:02:34.117Z,34.96
2018-04-22T12:05:01.702Z,34.58
2018-04-22T12:07:30.182Z,33.60
2018-04-22T12:09:57.757Z,34.42
2018-04-22T12:12:25.333Z,35.81
2018-04-22T12:14:52.901Z,34.10
2018-04-22T12:17:20.473Z,33.93
2018-04-22T12:19:48.055Z,35.71
2018-04-22T12:22:15.633Z,35.28
2018-04-22T12:24:43.217Z,39.09
2018-04-22T12:27:10.794Z,36.08
2018-04-22T12:29:38.369Z,35.17
2018-04-22T12:32:05.973Z,34.61
2018-04-22T12:34:33.551Z,34.59
2018-04-22T12:37:01.124Z,34.78
2018-04-22T12:39:28.698Z,35.37
2018-04-22T12:41:56.269Z,36.83
2018-04-22T12:44:23.852Z,37.04
2018-04-22T12:46:51.477Z,36.59
2018-04-22T12:49:19.050Z,33.53
2018-04-22T12:51:46.625Z,33.24
2018-04-22T12:54:14.207Z,34.17
2018-04-22T12:56:41.789Z,34.88
2018-04-22T12:59:09.367Z,33.55
2018-04-22T13:01:36.942Z,33.72
2018-04-22T13:04:04.520Z,33.98
2018-04-22T13:06:32.118Z,33.92
2018-04-22T13:08:59.721Z,33.15
2018-04-22T13:11:27.304Z,33.92
2018-04-22T13:13:54.917Z,34.37
2018-04-22T13:16:22.489Z,37.16
2018-04-22T13:18:50.065Z,34.23
2018-04-22T13:21:17.682Z,34.09
2018-04-22T13:23:45.261Z,34.46
2018-04-22T13:26:12.897Z,35.19
2018-04-22T13:28:40.509Z,36.11
2018-04-22T13:31:08.104Z,35.04
2018-04-22T13:33:35.674Z,35.14
2018-04-22T13:36:03.241Z,34.17
2018-04-22T13:38:30.817Z,35.20
2018-04-22T13:40:58.394Z,37.19
2018-04-22T13:43:25.996Z,37.83
2018-04-22T13:45:53.576Z,35.29
2018-04-22T13:48:21.173Z,36.86
2018-04-22T13:50:48.749Z,37.40
2018-04-22T13:53:16.329Z,36.86
2018-04-22T13:55:43.913Z,37.53
2018-04-22T13:58:11.487Z,38.79
2018-04-22T14:00:39.090Z,34.28
2018-04-22T14:03:06.670Z,34.19
2018-04-22T14:05:34.982Z,33.97
2018-04-22T14:08:02.556Z,36.97
2018-04-22T14:10:30.160Z,36.90
2018-04-22T14:12:58.641Z,34.71
2018-04-22T14:15:26.219Z,36.00
2018-04-22T14:17:53.797Z,34.22
2018-04-22T14:20:21.373Z,33.09
2018-04-22T14:22:48.944Z,32.97
2018-04-22T14:25:16.617Z,34.91
2018-04-22T14:27:44.129Z,37.88
2018-04-22T14:30:11.707Z,33.55
2018-04-22T14:32:39.286Z,35.44
2018-04-22T14:35:06.861Z,34.24
2018-04-22T14:37:34.440Z,33.18
2018-04-22T14:40:02.025Z,33.52
2018-04-22T14:42:29.617Z,35.03
2018-04-22T14:45:08.944Z,33.32
2018-04-22T14:47:36.656Z,35.74
2018-04-22T14:50:04.233Z,34.08
2018-04-22T14:52:31.808Z,34.72
2018-04-22T14:54:59.381Z,36.37
2018-04-22T14:57:26.985Z,37.86
2018-04-22T14:59:55.289Z,36.30
2018-04-22T15:02:22.900Z,36.07
2018-04-22T15:04:50.482Z,37.17
2018-04-22T15:07:18.093Z,33.26
2018-04-22T15:09:45.724Z,34.74
2018-04-22T15:12:13.342Z,35.88
2018-04-22T15:14:40.908Z,36.55
2018-04-22T15:17:08.486Z,38.66
2018-04-22T15:19:36.164Z,38.42
2018-04-22T15:22:03.670Z,39.57
2018-04-22T15:24:31.246Z,42.83
2018-04-22T15:26:58.824Z,42.77
2018-04-22T15:29:26.397Z,41.93
2018-04-22T15:31:53.977Z,39.05
2018-04-22T15:34:21.641Z,41.32
2018-04-22T15:36:49.225Z,42.29
2018-04-22T15:39:16.802Z,41.60
2018-04-22T15:41:44.370Z,42.57
2018-04-22T15:44:11.941Z,42.70
2018-04-22T15:46:39.518Z,45.15
2018-04-22T15:49:07.263Z,44.66
2018-04-22T15:51:35.029Z,46.32
2018-04-22T15:54:02.609Z,44.25
2018-04-22T15:56:30.185Z,45.86
2018-04-22T15:58:57.761Z,46.48
2018-04-22T16:01:25.344Z,45.94
2018-04-22T16:03:52.920Z,42.55
2018-04-22T16:06:20.503Z,42.83
2018-04-22T16:08:48.118Z,44.91
2018-04-22T16:11:15.693Z,45.62
2018-04-22T16:13:43.269Z,45.48
2018-04-22T16:16:10.842Z,44.92
2018-04-22T16:18:38.417Z,45.16
2018-04-22T16:21:06.039Z,48.25
2018-04-22T16:23:33.701Z,45.87
2018-04-22T16:26:01.288Z,47.47
2018-04-22T16:28:28.857Z,46.11
2018-04-22T16:30:56.439Z,44.38
2018-04-22T16:33:24.014Z,46.42
2018-04-22T16:35:51.594Z,46.50
2018-04-22T16:38:19.176Z,46.37
2018-04-22T16:40:46.753Z,45.68
2018-04-22T16:43:14.335Z,49.20
2018-04-22T16:45:41.946Z,46.89
2018-04-22T16:48:09.613Z,47.28
2018-04-22T16:50:37.242Z,49.42
2018-04-22T16:53:04.829Z,48.90
2018-04-22T16:55:32.440Z,50.37
2018-04-22T16:58:00.061Z,49.73
2018-04-22T17:03:30.046Z,50.86
2018-04-22T17:05:57.673Z,51.25
2018-04-22T17:08:25.270Z,50.77
2018-04-22T17:10:52.842Z,52.40
2018-04-22T17:13:21.001Z,52.40
2018-04-22T17:15:48.586Z,51.85
2018-04-22T17:18:16.165Z,51.80
2018-04-22T17:20:43.845Z,53.18
2018-04-22T17:23:11.455Z,53.42
2018-04-22T17:25:39.032Z,53.77
2018-04-22T17:28:06.717Z,54.31
2018-04-22T17:30:34.337Z,53.48
2018-04-22T17:33:01.952Z,54.94
2018-04-22T17:35:29.533Z,53.16
2018-04-22T17:37:57.142Z,53.06
2018-04-22T17:40:24.722Z,53.01
2018-04-22T17:42:52.324Z,54.27
2018-04-22T17:45:20.017Z,53.26
2018-04-22T17:47:47.727Z,53.34
2018-04-22T17:50:15.341Z,53.52
2018-04-22T17:52:43.002Z,53.57
2018-04-22T17:55:10.591Z,54.19
2018-04-22T17:57:38.170Z,54.83
2018-04-22T18:00:05.745Z,55.17
2018-04-22T18:02:33.355Z,56.16
2018-04-22T18:05:00.937Z,56.34
2018-04-22T18:07:28.569Z,56.38
2018-04-22T18:09:56.142Z,56.21
2018-04-22T18:12:23.793Z,57.40
2018-04-22T18:14:51.458Z,56.88
2018-04-22T18:17:19.030Z,56.73
2018-04-22T18:19:46.638Z,57.77
2018-04-22T18:22:14.211Z,57.85
2018-04-22T18:24:41.786Z,58.29
2018-04-22T18:27:09.366Z,58.88
2018-04-22T18:29:37.082Z,58.94
2018-04-22T18:32:04.789Z,60.06
2018-04-22T18:34:32.457Z,60.38
2018-04-22T18:37:00.121Z,60.51
2018-04-22T18:39:27.815Z,60.97
2018-04-22T18:41:55.392Z,61.10
2018-04-22T18:44:22.979Z,61.20
2018-04-22T18:46:50.565Z,61.52
2018-04-22T18:49:18.226Z,61.87
2018-04-22T18:51:45.803Z,62.95
2018-04-22T18:54:13.372Z,63.59
2018-04-22T18:56:41.017Z,63.85
2018-04-22T18:59:08.601Z,64.84
2018-04-22T19:01:36.185Z,64.47
2018-04-22T19:04:03.822Z,64.70
2018-04-22T19:06:31.515Z,64.77
2018-04-22T19:08:59.127Z,65.24
2018-04-22T19:11:26.817Z,65.40
2018-04-22T19:13:54.401Z,66.09
2018-04-22T19:16:22.045Z,66.84
2018-04-22T19:18:49.671Z,66.52
2018-04-22T19:21:17.293Z,67.30
2018-04-22T19:23:44.870Z,67.73
2018-04-22T19:26:12.512Z,67.61
2018-04-22T19:28:40.226Z,67.74
2018-04-22T19:31:07.885Z,67.77
2018-04-22T19:33:35.511Z,67.68
2018-04-22T19:36:03.247Z,67.95
2018-04-22T19:38:30.870Z,68.21
2018-04-22T19:40:58.489Z,68.42
2018-04-22T19:43:26.130Z,68.48
2018-04-22T19:45:53.757Z,69.34
2018-04-22T19:48:21.360Z,69.44
2018-04-22T19:50:48.937Z,69.56
2018-04-22T19:53:16.537Z,70.39
2018-04-22T19:55:44.243Z,70.17
2018-04-22T19:58:11.876Z,70.50
2018-04-22T20:00:39.461Z,70.68
2018-04-22T20:03:07.040Z,70.90
2018-04-22T20:05:34.652Z,70.76
2018-04-22T20:08:03.291Z,70.95
2018-04-22T20:10:30.902Z,70.80
2018-04-22T20:12:58.516Z,70.73
2018-04-22T20:15:26.230Z,70.59
2018-04-22T20:17:53.807Z,70.47
2018-04-22T20:20:21.454Z,70.70
2018-04-22T20:22:49.033Z,70.76
2018-04-22T20:25:16.654Z,70.75
2018-04-22T20:27:44.341Z,69.98
2018-04-22T20:30:11.952Z,69.48
2018-04-22T20:32:39.538Z,69.29
2018-04-22T20:35:07.226Z,69.55
2018-04-22T20:37:34.806Z,69.97
2018-04-22T20:40:02.420Z,71.36
2018-04-22T20:42:30.068Z,71.90
2018-04-22T20:44:57.675Z,72.39
2018-04-22T20:47:25.254Z,72.46
2018-04-22T20:49:52.871Z,72.62
2018-04-22T20:52:20.457Z,72.14
2018-04-22T20:54:48.050Z,72.23
2018-04-22T20:57:15.846Z,71.84
2018-04-22T20:59:43.425Z,71.68
2018-04-22T21:02:11.110Z,72.63
2018-04-22T21:04:38.720Z,72.72
2018-04-22T21:07:06.302Z,72.39
2018-04-22T21:09:33.922Z,72.21
2018-04-22T21:12:01.563Z,71.89
2018-04-22T21:14:29.221Z,71.68
2018-04-22T21:16:56.834Z,71.49
2018-04-22T21:19:24.413Z,71.60
2018-04-22T21:21:52.076Z,71.93
2018-04-22T21:24:19.739Z,71.77
2018-04-22T21:26:47.362Z,71.94
2018-04-22T21:29:15.026Z,71.80
2018-04-22T21:31:42.713Z,71.47
2018-04-22T21:34:10.325Z,71.63
2018-04-22T21:36:37.981Z,71.59
2018-04-22T21:39:06.310Z,70.12
2018-04-22T21:41:33.888Z,67.90
2018-04-22T21:44:01.468Z,65.54
2018-04-22T21:46:29.150Z,64.99
2018-04-22T21:48:56.729Z,63.08
2018-04-22T21:51:24.412Z,61.54
2018-04-22T21:53:51.983Z,61.27
2018-04-22T21:56:19.653Z,60.65
2018-04-22T21:58:47.281Z,60.45
2018-04-22T22:01:14.860Z,62.09
2018-04-22T22:03:42.441Z,60.80
2018-04-22T22:06:10.015Z,60.53
2018-04-22T22:08:37.598Z,60.76
2018-04-22T22:11:05.270Z,60.78
2018-04-22T22:13:32.852Z,60.97
2018-04-22T22:16:00.429Z,60.90
2018-04-22T22:18:28.010Z,59.56
2018-04-22T22:20:55.713Z,58.85
2018-04-22T22:23:23.299Z,59.17
2018-04-22T22:25:50.877Z,59.91
2018-04-22T22:28:18.485Z,59.80
2018-04-22T22:30:46.063Z,59.99
2018-04-22T22:33:13.637Z,61.02
2018-04-22T22:35:41.283Z,60.25
2018-04-22T22:38:08.941Z,60.73
2018-04-22T22:40:36.615Z,62.17
2018-04-22T22:43:04.270Z,62.72
2018-04-22T22:45:31.844Z,62.26
2018-04-22T22:47:59.494Z,62.50
2018-04-22T22:50:27.157Z,64.26
2018-04-22T22:52:55.677Z,64.82
2018-04-22T22:55:23.294Z,63.89
2018-04-22T22:57:50.873Z,64.95
2018-04-22T23:00:19.161Z,64.77
2018-04-22T23:02:46.777Z,64.73
2018-04-22T23:05:14.353Z,63.92
2018-04-22T23:07:41.930Z,65.79
2018-04-22T23:10:09.545Z,66.42
2018-04-22T23:12:37.148Z,66.47
2018-04-22T23:15:05.452Z,64.59
2018-04-22T23:17:33.040Z,66.82
2018-04-22T23:20:00.619Z,67.16
2018-04-22T23:22:28.233Z,68.45
2018-04-22T23:24:55.812Z,69.52
2018-04-22T23:27:23.385Z,69.69
2018-04-22T23:29:50.961Z,69.94
2018-04-22T23:32:18.536Z,70.46
2018-04-22T23:34:46.113Z,71.14
2018-04-22T23:37:13.693Z,70.06
2018-04-22T23:39:41.269Z,67.24
2018-04-22T23:42:08.873Z,68.34
2018-04-22T23:44:36.485Z,68.47
2018-04-22T23:47:04.069Z,69.12
2018-04-22T23:49:31.642Z,68.89
2018-04-22T23:51:59.226Z,70.12
2018-04-22T23:54:26.806Z,69.85
2018-04-22T23:56:54.395Z,70.55
2018-04-22T23:59:21.974Z,70.86
